createdAt,value
2019-05-15T00:00:11.174Z,6.26
2019-05-15T00:01:11.320Z,6.25
2019-05-15T00:02:11.461Z,6.35
2019-05-15T00:03:11.606Z,6.26
2019-05-15T00:04:11.752Z,6.33
2019-05-15T00:05:11.896Z,6.38
2019-05-15T00:06:12.042Z,6.29
2019-05-15T00:07:12.190Z,6.30
2019-05-15T00:08:12.333Z,6.33
2019-05-15T00:09:12.478Z,6.33
2019-05-15T00:10:12.623Z,6.41
2019-05-15T00:11:12.769Z,6.35
2019-05-15T00:12:12.923Z,6.44
2019-05-15T00:13:13.074Z,6.35
2019-05-15T00:14:13.213Z,6.41
2019-05-15T00:15:13.358Z,6.32
2019-05-15T00:16:13.514Z,6.41
2019-05-15T00:17:13.649Z,6.44
2019-05-15T00:18:13.794Z,6.26
2019-05-15T00:19:13.941Z,6.35
2019-05-15T00:20:14.083Z,6.30
2019-05-15T00:21:14.230Z,6.29
2019-05-15T00:22:14.373Z,6.30
2019-05-15T00:23:14.518Z,6.28
2019-05-15T00:24:14.675Z,6.28
2019-05-15T00:25:14.823Z,6.22
2019-05-15T00:26:14.967Z,6.25
2019-05-15T00:27:15.116Z,6.18
2019-05-15T00:28:15.258Z,6.21
2019-05-15T00:29:17.427Z,6.06
2019-05-15T00:30:15.547Z,5.85
2019-05-15T00:31:18.407Z,5.78
2019-05-15T00:32:15.845Z,5.77
2019-05-15T00:33:15.981Z,5.66
2019-05-15T00:34:18.117Z,5.81
2019-05-15T00:35:18.236Z,5.83
2019-05-15T00:36:19.015Z,5.57
2019-05-15T00:37:18.236Z,5.55
2019-05-15T00:38:18.614Z,5.56
2019-05-15T00:39:18.819Z,5.63
2019-05-15T00:40:18.349Z,5.48
2019-05-15T00:41:18.517Z,5.53
2019-05-15T00:42:19.010Z,5.57
2019-05-15T00:43:18.311Z,5.66
2019-05-15T00:44:18.645Z,5.55
2019-05-15T00:45:18.520Z,5.60
2019-05-15T00:46:18.382Z,5.55
2019-05-15T00:47:18.171Z,5.56
2019-05-15T00:48:18.412Z,5.41
2019-05-15T00:49:18.921Z,5.40
2019-05-15T00:50:18.469Z,5.35
2019-05-15T00:51:19.503Z,5.27
2019-05-15T00:52:18.744Z,5.22
2019-05-15T00:53:19.577Z,5.31
2019-05-15T00:54:19.283Z,5.13
2019-05-15T00:55:19.271Z,5.17
2019-05-15T00:56:19.617Z,5.05
2019-05-15T00:57:19.471Z,4.98
2019-05-15T00:58:20.168Z,4.91
2019-05-15T00:59:26.300Z,4.98
2019-05-15T01:00:19.902Z,5.01
2019-05-15T01:01:20.047Z,4.95
2019-05-15T01:02:20.195Z,5.13
2019-05-15T01:03:20.340Z,5.09
2019-05-15T01:04:20.484Z,4.99
2019-05-15T01:05:20.630Z,4.92
2019-05-15T01:06:20.777Z,4.96
2019-05-15T01:07:20.920Z,4.91
2019-05-15T01:08:21.066Z,4.86
2019-05-15T01:09:21.212Z,4.72
2019-05-15T01:10:21.357Z,4.59
2019-05-15T01:11:21.502Z,4.70
2019-05-15T01:12:21.648Z,4.64
2019-05-15T01:13:21.793Z,4.58
2019-05-15T01:14:21.935Z,4.55
2019-05-15T01:15:22.080Z,4.54
2019-05-15T01:16:22.226Z,4.47
2019-05-15T01:17:22.369Z,4.54
2019-05-15T01:18:22.516Z,4.58
2019-05-15T01:19:22.657Z,4.55
2019-05-15T01:20:22.803Z,4.67
2019-05-15T01:21:22.949Z,4.67
2019-05-15T01:22:23.095Z,4.62
2019-05-15T01:23:23.238Z,4.64
2019-05-15T01:24:23.383Z,4.67
2019-05-15T01:25:23.528Z,4.52
2019-05-15T01:26:23.669Z,4.67
2019-05-15T01:27:23.815Z,4.72
2019-05-15T01:28:23.964Z,4.59
2019-05-15T01:29:31.023Z,4.70
2019-05-15T01:30:24.249Z,4.73
2019-05-15T01:31:24.392Z,4.69
2019-05-15T01:32:24.537Z,4.57
2019-05-15T01:33:24.682Z,4.50
2019-05-15T01:34:24.830Z,4.42
2019-05-15T01:35:24.969Z,4.26
2019-05-15T01:36:25.114Z,4.28
2019-05-15T01:37:25.267Z,4.29
2019-05-15T01:38:25.412Z,4.18
2019-05-15T01:39:25.553Z,4.34
2019-05-15T01:40:25.697Z,4.34
2019-05-15T01:41:28.039Z,4.37
2019-05-15T01:42:27.876Z,4.37
2019-05-15T01:43:26.131Z,4.28
2019-05-15T01:44:28.550Z,4.19
2019-05-15T01:45:28.595Z,4.10
2019-05-15T01:46:28.607Z,4.19
2019-05-15T01:47:28.171Z,4.10
2019-05-15T01:48:28.298Z,4.08
2019-05-15T01:49:28.011Z,3.98
2019-05-15T01:50:29.095Z,4.15
2019-05-15T01:51:28.562Z,4.07
2019-05-15T01:52:27.912Z,4.19
2019-05-15T01:53:29.087Z,4.26
2019-05-15T01:54:28.850Z,4.24
2019-05-15T01:55:28.417Z,4.25
2019-05-15T01:56:29.276Z,4.24
2019-05-15T01:57:28.769Z,4.36
2019-05-15T01:58:28.744Z,4.40
2019-05-15T01:59:28.543Z,4.36
2019-05-15T02:00:28.583Z,4.42
2019-05-15T02:01:28.730Z,4.37
2019-05-15T02:02:28.873Z,4.36
2019-05-15T02:03:29.154Z,4.28
2019-05-15T02:04:29.178Z,4.18
2019-05-15T02:05:29.321Z,4.07
2019-05-15T02:06:29.461Z,4.01
2019-05-15T02:07:29.607Z,4.08
2019-05-15T02:08:29.748Z,4.22
2019-05-15T02:09:29.894Z,4.22
2019-05-15T02:10:30.049Z,4.22
2019-05-15T02:11:30.182Z,4.12
2019-05-15T02:12:30.326Z,4.22
2019-05-15T02:13:30.470Z,4.25
2019-05-15T02:14:30.615Z,4.22
2019-05-15T02:15:30.758Z,4.25
2019-05-15T02:16:30.904Z,4.26
2019-05-15T02:17:31.050Z,4.24
2019-05-15T02:18:31.203Z,4.26
2019-05-15T02:19:31.337Z,4.24
2019-05-15T02:20:31.483Z,4.32
2019-05-15T02:21:31.628Z,4.25
2019-05-15T02:22:31.774Z,4.25
2019-05-15T02:23:31.919Z,4.32
2019-05-15T02:24:32.083Z,4.32
2019-05-15T02:25:32.205Z,4.40
2019-05-15T02:26:32.351Z,4.36
2019-05-15T02:27:32.494Z,4.26
2019-05-15T02:28:32.640Z,4.29
2019-05-15T02:29:32.783Z,4.21
2019-05-15T02:30:34.261Z,4.28
2019-05-15T02:31:33.083Z,4.28
2019-05-15T02:32:33.217Z,4.24
2019-05-15T02:33:33.362Z,4.28
2019-05-15T02:34:33.509Z,4.29
2019-05-15T02:35:33.651Z,4.24
2019-05-15T02:36:33.795Z,4.00
2019-05-15T02:37:33.942Z,3.86
2019-05-15T02:38:34.084Z,3.88
2019-05-15T02:39:34.231Z,3.72
2019-05-15T02:40:34.371Z,3.67
2019-05-15T02:41:34.525Z,3.64
2019-05-15T02:42:34.667Z,3.67
2019-05-15T02:43:34.808Z,3.64
2019-05-15T02:44:34.951Z,3.65
2019-05-15T02:45:37.779Z,3.64
2019-05-15T02:46:35.240Z,3.67
2019-05-15T02:47:35.384Z,3.60
2019-05-15T02:48:35.528Z,3.57
2019-05-15T02:49:35.673Z,3.50
2019-05-15T02:50:38.784Z,3.54
2019-05-15T02:51:35.963Z,3.44
2019-05-15T02:52:38.842Z,3.40
2019-05-15T02:53:39.239Z,3.33
2019-05-15T02:54:36.393Z,3.25
2019-05-15T02:55:39.823Z,3.27
2019-05-15T02:56:39.195Z,3.25
2019-05-15T02:57:39.451Z,3.30
2019-05-15T02:58:39.537Z,3.21
2019-05-15T02:59:39.627Z,3.28
2019-05-15T03:00:46.918Z,3.34
2019-05-15T03:01:40.302Z,3.36
2019-05-15T03:02:40.722Z,3.28
2019-05-15T03:03:38.810Z,3.30
2019-05-15T03:04:40.099Z,3.33
2019-05-15T03:05:40.792Z,3.25
2019-05-15T03:06:39.024Z,3.30
2019-05-15T03:07:40.431Z,3.20
2019-05-15T03:08:39.810Z,3.09
2019-05-15T03:09:39.907Z,3.09
2019-05-15T03:10:40.690Z,3.12
2019-05-15T03:11:40.998Z,2.97
2019-05-15T03:12:40.838Z,3.06
2019-05-15T03:13:39.531Z,3.02
2019-05-15T03:14:40.102Z,2.88
2019-05-15T03:15:40.603Z,2.98
2019-05-15T03:16:39.775Z,2.88
2019-05-15T03:17:40.628Z,2.88
2019-05-15T03:18:40.006Z,2.81
2019-05-15T03:19:39.998Z,2.82
2019-05-15T03:20:40.143Z,2.79
2019-05-15T03:21:40.288Z,2.77
2019-05-15T03:22:40.794Z,2.77
2019-05-15T03:23:40.868Z,2.84
2019-05-15T03:24:40.727Z,2.87
2019-05-15T03:25:40.977Z,2.95
2019-05-15T03:26:41.011Z,3.00
2019-05-15T03:27:41.176Z,2.98
2019-05-15T03:28:41.298Z,3.03
2019-05-15T03:29:41.443Z,3.13
2019-05-15T03:31:12.139Z,2.97
2019-05-15T03:31:59.113Z,2.94
2019-05-15T03:32:51.747Z,2.97
2019-05-15T03:33:45.780Z,2.95
2019-05-15T03:34:47.245Z,2.98
2019-05-15T03:35:44.017Z,3.05
2019-05-15T03:36:45.423Z,3.00
2019-05-15T03:37:42.592Z,2.87
2019-05-15T03:38:42.739Z,2.87
2019-05-15T03:39:46.652Z,2.74
2019-05-15T03:40:43.027Z,2.84
2019-05-15T03:41:43.170Z,2.88
2019-05-15T03:42:43.315Z,2.94
2019-05-15T03:43:43.459Z,2.85
2019-05-15T03:44:43.604Z,2.91
2019-05-15T03:45:43.751Z,2.84
2019-05-15T03:46:43.893Z,2.92
2019-05-15T03:47:44.046Z,2.82
2019-05-15T03:48:44.181Z,2.82
2019-05-15T03:49:44.325Z,2.69
2019-05-15T03:50:44.470Z,2.77
2019-05-15T03:51:45.937Z,2.81
2019-05-15T03:52:44.757Z,2.87
2019-05-15T03:53:44.900Z,2.84
2019-05-15T03:54:45.043Z,2.88
2019-05-15T03:55:45.186Z,2.81
2019-05-15T03:56:45.329Z,2.87
2019-05-15T03:57:45.476Z,2.81
2019-05-15T03:58:49.072Z,2.79
2019-05-15T03:59:48.826Z,2.91
2019-05-15T04:00:49.559Z,2.87
2019-05-15T04:01:49.442Z,2.92
2019-05-15T04:02:48.720Z,2.84
2019-05-15T04:03:49.346Z,2.97
2019-05-15T04:04:49.809Z,2.89
2019-05-15T04:05:49.392Z,2.89
2019-05-15T04:06:49.646Z,2.94
2019-05-15T04:07:49.498Z,3.00
2019-05-15T04:08:49.627Z,3.09
2019-05-15T04:09:49.349Z,3.05
2019-05-15T04:10:48.705Z,3.09
2019-05-15T04:11:49.793Z,3.05
2019-05-15T04:12:49.274Z,2.98
2019-05-15T04:13:50.005Z,3.02
2019-05-15T04:14:50.084Z,2.98
2019-05-15T04:15:50.288Z,3.05
2019-05-15T04:16:49.715Z,3.07
2019-05-15T04:17:49.277Z,3.05
2019-05-15T04:18:49.044Z,3.18
2019-05-15T04:19:49.635Z,3.28
2019-05-15T04:20:49.318Z,3.10
2019-05-15T04:21:49.534Z,3.20
2019-05-15T04:22:49.277Z,3.28
2019-05-15T04:23:50.072Z,3.24
2019-05-15T04:24:49.607Z,3.46
2019-05-15T04:25:49.530Z,3.33
2019-05-15T04:26:49.658Z,3.43
2019-05-15T04:27:49.801Z,3.47
2019-05-15T04:28:49.940Z,3.49
2019-05-15T04:29:50.084Z,3.52
2019-05-15T04:30:50.232Z,3.46
2019-05-15T04:32:00.687Z,3.49
2019-05-15T04:32:50.519Z,3.46
2019-05-15T04:33:50.664Z,3.46
2019-05-15T04:34:50.811Z,3.67
2019-05-15T04:35:50.969Z,3.80
2019-05-15T04:36:51.102Z,3.83
2019-05-15T04:37:51.246Z,4.12
2019-05-15T04:38:51.388Z,4.21
2019-05-15T04:39:51.540Z,4.50
2019-05-15T04:40:51.690Z,4.65
2019-05-15T04:41:51.828Z,4.92
2019-05-15T04:42:51.966Z,5.14
2019-05-15T04:43:52.114Z,5.07
2019-05-15T04:44:52.257Z,5.27
2019-05-15T04:45:52.402Z,5.22
2019-05-15T04:46:52.549Z,5.40
2019-05-15T04:47:52.694Z,5.30
2019-05-15T04:48:52.838Z,5.16
2019-05-15T04:49:52.985Z,5.10
2019-05-15T04:50:53.133Z,5.12
2019-05-15T04:51:53.277Z,4.75
2019-05-15T04:52:53.417Z,4.67
2019-05-15T04:53:53.563Z,4.54
2019-05-15T04:54:53.707Z,4.67
2019-05-15T04:55:53.854Z,4.55
2019-05-15T04:56:53.998Z,4.44
2019-05-15T04:57:54.143Z,4.39
2019-05-15T04:58:54.298Z,4.43
2019-05-15T04:59:54.418Z,4.44
2019-05-15T05:00:54.579Z,4.46
2019-05-15T05:02:13.058Z,4.43
2019-05-15T05:02:54.866Z,4.54
2019-05-15T05:03:55.012Z,4.54
2019-05-15T05:04:55.152Z,4.55
2019-05-15T05:05:55.298Z,4.67
2019-05-15T05:06:55.446Z,4.54
2019-05-15T05:07:55.587Z,4.65
2019-05-15T05:08:55.733Z,4.73
2019-05-15T05:09:55.879Z,4.83
2019-05-15T05:10:58.860Z,4.88
2019-05-15T05:11:58.257Z,4.83
2019-05-15T05:12:59.002Z,4.72
2019-05-15T05:13:58.945Z,4.83
2019-05-15T05:14:58.748Z,4.88
2019-05-15T05:15:58.662Z,4.98
2019-05-15T05:16:59.294Z,5.01
2019-05-15T05:17:58.584Z,5.04
2019-05-15T05:18:59.440Z,4.98
2019-05-15T05:19:58.336Z,5.10
2019-05-15T05:20:57.837Z,4.96
2019-05-15T05:21:58.533Z,5.13
2019-05-15T05:22:58.368Z,5.22
2019-05-15T05:23:58.611Z,5.30
2019-05-15T05:24:58.499Z,5.35
2019-05-15T05:25:58.300Z,5.27
2019-05-15T05:26:58.342Z,5.43
2019-05-15T05:27:58.487Z,5.49
2019-05-15T05:29:01.407Z,5.49
2019-05-15T05:29:58.781Z,5.59
2019-05-15T05:30:59.031Z,5.57
2019-05-15T05:31:59.070Z,5.66
2019-05-15T05:32:59.216Z,5.59
2019-05-15T05:33:59.362Z,5.52
2019-05-15T05:34:59.507Z,5.57
2019-05-15T05:35:59.656Z,5.64
2019-05-15T05:36:59.800Z,5.85
2019-05-15T05:37:59.943Z,5.95
2019-05-15T05:39:00.090Z,6.06
2019-05-15T05:40:00.236Z,6.06
2019-05-15T05:41:00.392Z,6.07
2019-05-15T05:42:00.527Z,6.18
2019-05-15T05:43:00.679Z,6.09
2019-05-15T05:44:00.819Z,6.35
2019-05-15T05:45:00.967Z,6.26
2019-05-15T05:46:01.114Z,6.28
2019-05-15T05:47:01.259Z,6.28
2019-05-15T05:48:01.406Z,6.21
2019-05-15T05:49:01.551Z,6.14
2019-05-15T05:50:01.701Z,6.30
2019-05-15T05:51:01.848Z,6.38
2019-05-15T05:52:01.998Z,6.51
2019-05-15T05:53:02.137Z,6.53
2019-05-15T05:54:02.291Z,6.58
2019-05-15T05:55:02.430Z,6.76
2019-05-15T05:56:02.576Z,6.76
2019-05-15T05:57:02.722Z,6.73
2019-05-15T05:58:02.867Z,6.63
2019-05-15T05:59:03.011Z,6.68
2019-05-15T06:00:03.158Z,6.69
2019-05-15T06:01:03.303Z,6.80
2019-05-15T06:02:03.447Z,6.86
2019-05-15T06:03:03.595Z,6.98
2019-05-15T06:04:03.742Z,7.02
2019-05-15T06:05:03.887Z,6.86
2019-05-15T06:06:04.038Z,7.05
2019-05-15T06:07:10.044Z,6.97
2019-05-15T06:08:04.327Z,7.07
2019-05-15T06:09:04.484Z,6.95
2019-05-15T06:10:04.620Z,7.12
2019-05-15T06:11:04.766Z,7.17
2019-05-15T06:12:04.911Z,7.23
2019-05-15T06:13:05.059Z,7.32
2019-05-15T06:14:05.213Z,7.22
2019-05-15T06:15:05.349Z,7.22
2019-05-15T06:16:05.496Z,7.22
2019-05-15T06:17:08.201Z,7.20
2019-05-15T06:18:08.128Z,7.22
2019-05-15T06:19:08.208Z,7.22
2019-05-15T06:20:08.069Z,7.16
2019-05-15T06:21:08.821Z,7.23
2019-05-15T06:22:08.595Z,7.15
2019-05-15T06:23:08.401Z,7.22
2019-05-15T06:24:12.983Z,7.16
2019-05-15T06:25:10.735Z,7.20
2019-05-15T06:26:09.413Z,7.19
2019-05-15T06:27:08.246Z,7.07
2019-05-15T06:28:09.122Z,7.12
2019-05-15T06:29:08.887Z,7.27
2019-05-15T06:30:08.855Z,7.35
2019-05-15T06:31:08.745Z,7.35
2019-05-15T06:32:08.046Z,7.38
2019-05-15T06:33:12.762Z,7.49
2019-05-15T06:34:08.319Z,7.62
2019-05-15T06:35:08.778Z,7.60
2019-05-15T06:36:09.104Z,7.53
2019-05-15T06:37:08.589Z,7.45
2019-05-15T06:38:08.737Z,7.59
2019-05-15T06:39:08.883Z,7.47
2019-05-15T06:40:09.028Z,7.72
2019-05-15T06:41:09.174Z,7.72
2019-05-15T06:42:09.329Z,7.84
2019-05-15T06:43:09.466Z,8.03
2019-05-15T06:44:09.612Z,8.07
2019-05-15T06:45:09.758Z,8.29
2019-05-15T06:46:09.905Z,8.22
2019-05-15T06:47:10.052Z,8.22
2019-05-15T06:48:10.197Z,8.03
2019-05-15T06:49:10.342Z,8.14
2019-05-15T06:50:10.499Z,8.18
2019-05-15T06:51:10.637Z,8.22
2019-05-15T06:52:10.786Z,8.22
2019-05-15T06:53:11.080Z,8.26
2019-05-15T06:54:11.079Z,8.36
2019-05-15T06:55:11.229Z,8.40
2019-05-15T06:56:11.373Z,8.29
2019-05-15T06:57:11.518Z,8.36
2019-05-15T06:58:11.669Z,8.36
2019-05-15T06:59:11.815Z,8.37
2019-05-15T07:00:11.961Z,8.36
2019-05-15T07:01:12.112Z,8.48
2019-05-15T07:02:12.256Z,8.42
2019-05-15T07:03:21.647Z,8.42
2019-05-15T07:04:12.550Z,8.45
2019-05-15T07:05:12.694Z,8.50
2019-05-15T07:06:12.841Z,8.66
2019-05-15T07:07:12.995Z,8.86
2019-05-15T07:08:13.129Z,8.83
2019-05-15T07:09:13.278Z,8.76
2019-05-15T07:10:13.428Z,8.87
2019-05-15T07:11:13.580Z,8.94
2019-05-15T07:12:13.725Z,8.93
2019-05-15T07:13:13.871Z,8.84
2019-05-15T07:14:14.020Z,8.91
2019-05-15T07:15:14.165Z,8.94
2019-05-15T07:16:14.311Z,8.96
2019-05-15T07:17:14.467Z,8.86
2019-05-15T07:18:14.608Z,8.96
2019-05-15T07:19:14.754Z,9.06
2019-05-15T07:20:14.902Z,9.05
2019-05-15T07:21:18.237Z,8.88
2019-05-15T07:22:15.201Z,8.88
2019-05-15T07:23:18.319Z,9.13
2019-05-15T07:24:15.498Z,9.27
2019-05-15T07:25:15.639Z,9.06
2019-05-15T07:26:18.151Z,8.87
2019-05-15T07:27:18.268Z,9.05
2019-05-15T07:28:18.113Z,9.09
2019-05-15T07:29:18.628Z,9.20
2019-05-15T07:30:18.614Z,9.13
2019-05-15T07:31:18.035Z,9.28
2019-05-15T07:32:19.035Z,9.45
2019-05-15T07:33:20.274Z,9.45
2019-05-15T07:34:18.800Z,9.52
2019-05-15T07:35:19.160Z,9.50
2019-05-15T07:36:19.320Z,9.63
2019-05-15T07:37:19.059Z,9.58
2019-05-15T07:38:18.285Z,9.46
2019-05-15T07:39:18.070Z,9.42
2019-05-15T07:40:19.344Z,9.56
2019-05-15T07:41:18.433Z,9.48
2019-05-15T07:42:18.625Z,9.50
2019-05-15T07:43:18.447Z,9.49
2019-05-15T07:44:18.967Z,9.63
2019-05-15T07:45:19.787Z,9.58
2019-05-15T07:46:18.731Z,9.45
2019-05-15T07:47:19.290Z,9.49
2019-05-15T07:48:19.162Z,9.46
2019-05-15T07:49:19.176Z,9.49
2019-05-15T07:50:19.809Z,9.82
2019-05-15T07:51:19.472Z,9.78
2019-05-15T07:52:19.627Z,9.86
2019-05-15T07:53:20.310Z,9.94
2019-05-15T07:54:19.917Z,9.93
2019-05-15T07:55:20.065Z,10.06
2019-05-15T07:56:20.209Z,10.40
2019-05-15T07:57:20.356Z,10.51
2019-05-15T07:58:21.844Z,10.56
2019-05-15T07:59:20.651Z,10.56
2019-05-15T08:00:20.800Z,10.68
2019-05-15T08:01:20.948Z,10.68
2019-05-15T08:02:21.099Z,10.59
2019-05-15T08:03:21.252Z,10.51
2019-05-15T08:04:28.763Z,10.51
2019-05-15T08:05:21.540Z,10.52
2019-05-15T08:06:24.551Z,10.34
2019-05-15T08:07:21.844Z,10.25
2019-05-15T08:08:21.988Z,10.36
2019-05-15T08:09:22.135Z,10.40
2019-05-15T08:10:22.283Z,10.40
2019-05-15T08:11:24.861Z,10.14
2019-05-15T08:12:22.575Z,10.10
2019-05-15T08:13:22.725Z,10.24
2019-05-15T08:14:22.894Z,10.42
2019-05-15T08:15:23.022Z,10.44
2019-05-15T08:16:23.169Z,10.51
2019-05-15T08:17:23.318Z,10.68
2019-05-15T08:18:23.469Z,10.76
2019-05-15T08:19:23.612Z,10.81
2019-05-15T08:20:23.758Z,10.91
2019-05-15T08:21:23.905Z,10.83
2019-05-15T08:22:24.061Z,10.84
2019-05-15T08:23:24.202Z,10.84
2019-05-15T08:24:24.343Z,11.01
2019-05-15T08:25:32.304Z,11.17
2019-05-15T08:26:24.658Z,11.39
2019-05-15T08:27:24.812Z,11.16
2019-05-15T08:28:24.953Z,11.03
2019-05-15T08:29:25.104Z,11.10
2019-05-15T08:30:25.252Z,11.27
2019-05-15T08:31:25.416Z,11.25
2019-05-15T08:32:27.891Z,11.32
2019-05-15T08:33:28.002Z,11.52
2019-05-15T08:34:28.129Z,11.56
2019-05-15T08:35:26.001Z,11.78
2019-05-15T08:36:27.976Z,11.59
2019-05-15T08:37:29.096Z,11.71
2019-05-15T08:38:28.780Z,11.78
2019-05-15T08:39:28.492Z,11.80
2019-05-15T08:40:28.485Z,11.54
2019-05-15T08:41:29.440Z,11.64
2019-05-15T08:42:28.083Z,11.77
2019-05-15T08:43:29.080Z,11.77
2019-05-15T08:44:29.307Z,11.68
2019-05-15T08:45:28.301Z,11.75
2019-05-15T08:46:28.025Z,11.68
2019-05-15T08:47:29.713Z,11.75
2019-05-15T08:48:27.945Z,11.83
2019-05-15T08:49:28.415Z,11.89
2019-05-15T08:50:28.747Z,11.67
2019-05-15T08:51:28.500Z,11.62
2019-05-15T08:52:28.531Z,11.85
2019-05-15T08:53:28.876Z,11.82
2019-05-15T08:54:29.166Z,11.86
2019-05-15T08:55:28.976Z,11.82
2019-05-15T08:56:29.143Z,11.82
2019-05-15T08:57:29.276Z,11.70
2019-05-15T08:58:29.431Z,11.50
2019-05-15T08:59:29.690Z,11.39
2019-05-15T09:00:29.725Z,11.34
2019-05-15T09:01:29.873Z,11.43
2019-05-15T09:02:30.021Z,11.49
2019-05-15T09:03:30.172Z,11.47
2019-05-15T09:04:34.474Z,11.82
2019-05-15T09:05:30.473Z,11.83
2019-05-15T09:06:30.622Z,11.82
2019-05-15T09:07:30.772Z,11.82
2019-05-15T09:08:30.917Z,11.83
2019-05-15T09:09:31.073Z,11.78
2019-05-15T09:10:31.221Z,11.85
2019-05-15T09:11:31.368Z,11.78
2019-05-15T09:12:31.512Z,11.87
2019-05-15T09:13:31.668Z,11.90
2019-05-15T09:14:31.811Z,11.87
2019-05-15T09:15:31.959Z,11.89
2019-05-15T09:16:32.110Z,11.90
2019-05-15T09:17:32.259Z,12.06
2019-05-15T09:18:32.406Z,12.21
2019-05-15T09:19:32.559Z,12.38
2019-05-15T09:20:32.706Z,12.44
2019-05-15T09:21:32.857Z,12.49
2019-05-15T09:22:33.006Z,12.54
2019-05-15T09:23:33.154Z,12.57
2019-05-15T09:24:33.303Z,12.71
2019-05-15T09:25:33.510Z,12.82
2019-05-15T09:26:35.421Z,12.82
2019-05-15T09:27:33.811Z,12.96
2019-05-15T09:28:33.961Z,12.95
2019-05-15T09:29:34.107Z,12.78
2019-05-15T09:30:34.254Z,12.67
2019-05-15T09:31:34.405Z,12.63
2019-05-15T09:32:34.558Z,12.54
2019-05-15T09:33:34.708Z,12.56
2019-05-15T09:34:47.964Z,12.45
2019-05-15T09:35:35.005Z,12.66
2019-05-15T09:36:35.155Z,12.77
2019-05-15T09:37:35.309Z,12.88
2019-05-15T09:38:35.457Z,12.79
2019-05-15T09:39:38.036Z,12.88
2019-05-15T09:40:45.320Z,13.00
2019-05-15T09:41:37.929Z,12.89
2019-05-15T09:42:38.663Z,12.74
2019-05-15T09:43:38.524Z,12.70
2019-05-15T09:44:36.356Z,12.67
2019-05-15T09:45:38.121Z,12.74
2019-05-15T09:46:38.314Z,12.84
2019-05-15T09:47:39.466Z,12.95
2019-05-15T09:48:39.113Z,12.95
2019-05-15T09:49:39.108Z,12.97
2019-05-15T09:50:39.617Z,12.96
2019-05-15T09:51:38.483Z,13.09
2019-05-15T09:52:38.772Z,12.95
2019-05-15T09:53:39.388Z,12.99
2019-05-15T09:54:38.687Z,12.93
2019-05-15T09:55:38.275Z,13.03
2019-05-15T09:56:38.602Z,12.95
2019-05-15T09:57:38.735Z,13.15
2019-05-15T09:58:38.487Z,13.15
2019-05-15T09:59:39.132Z,12.96
2019-05-15T10:00:38.789Z,12.95
2019-05-15T10:01:39.602Z,12.99
2019-05-15T10:02:39.608Z,12.97
2019-05-15T10:03:43.782Z,13.11
2019-05-15T10:04:39.409Z,13.12
2019-05-15T10:05:39.531Z,13.21
2019-05-15T10:06:39.681Z,13.38
2019-05-15T10:07:40.589Z,13.40
2019-05-15T10:08:40.085Z,13.21
2019-05-15T10:09:40.131Z,13.41
2019-05-15T10:10:40.285Z,13.18
2019-05-15T10:11:40.431Z,13.18
2019-05-15T10:12:40.639Z,13.15
2019-05-15T10:13:40.729Z,13.17
2019-05-15T10:14:40.880Z,13.17
2019-05-15T10:15:41.028Z,13.25
2019-05-15T10:16:41.180Z,13.27
2019-05-15T10:17:41.331Z,13.14
2019-05-15T10:18:41.481Z,13.14
2019-05-15T10:19:41.631Z,13.30
2019-05-15T10:20:41.781Z,13.46
2019-05-15T10:21:41.942Z,13.30
2019-05-15T10:22:42.087Z,13.27
2019-05-15T10:23:42.235Z,13.17
2019-05-15T10:24:42.387Z,12.99
2019-05-15T10:25:42.538Z,13.15
2019-05-15T10:26:42.688Z,13.38
2019-05-15T10:27:42.839Z,13.47
2019-05-15T10:28:42.995Z,13.25
2019-05-15T10:29:43.139Z,13.21
2019-05-15T10:30:43.292Z,13.09
2019-05-15T10:31:43.440Z,13.12
2019-05-15T10:32:43.591Z,13.22
2019-05-15T10:33:43.741Z,13.36
2019-05-15T10:34:43.891Z,13.46
2019-05-15T10:35:44.044Z,13.63
2019-05-15T10:36:44.201Z,13.67
2019-05-15T10:37:44.351Z,13.62
2019-05-15T10:38:44.542Z,13.70
2019-05-15T10:39:44.650Z,13.61
2019-05-15T10:41:00.023Z,13.81
2019-05-15T10:41:44.949Z,14.13
2019-05-15T10:42:45.102Z,14.07
2019-05-15T10:43:47.549Z,14.27
2019-05-15T10:44:45.411Z,14.02
2019-05-15T10:45:49.746Z,13.88
2019-05-15T10:46:48.078Z,14.04
2019-05-15T10:47:45.871Z,14.07
2019-05-15T10:48:46.029Z,14.20
2019-05-15T10:49:48.307Z,14.19
2019-05-15T10:50:46.326Z,14.25
2019-05-15T10:51:46.474Z,14.24
2019-05-15T10:52:48.754Z,14.25
2019-05-15T10:53:48.794Z,14.20
2019-05-15T10:54:46.934Z,14.35
2019-05-15T10:55:49.622Z,14.50
2019-05-15T10:56:47.236Z,14.50
2019-05-15T10:57:47.402Z,14.50
2019-05-15T10:58:50.176Z,14.64
2019-05-15T10:59:47.893Z,14.54
2019-05-15T11:00:49.368Z,14.72
2019-05-15T11:01:48.787Z,14.60
2019-05-15T11:02:48.963Z,14.81
2019-05-15T11:03:49.580Z,14.64
2019-05-15T11:04:48.767Z,14.65
2019-05-15T11:05:49.166Z,14.34
2019-05-15T11:06:49.156Z,14.47
2019-05-15T11:07:48.900Z,14.84
2019-05-15T11:08:51.563Z,14.90
2019-05-15T11:09:49.261Z,15.09
2019-05-15T11:10:49.932Z,15.08
2019-05-15T11:11:51.561Z,15.19
2019-05-15T11:12:49.679Z,15.06
2019-05-15T11:13:49.798Z,15.02
2019-05-15T11:14:49.954Z,15.23
2019-05-15T11:15:50.103Z,14.99
2019-05-15T11:16:50.253Z,15.23
2019-05-15T11:17:50.405Z,15.43
2019-05-15T11:18:53.407Z,15.63
2019-05-15T11:19:50.713Z,15.51
2019-05-15T11:20:50.865Z,15.82
2019-05-15T11:21:51.014Z,15.96
2019-05-15T11:22:51.168Z,16.07
2019-05-15T11:23:51.319Z,15.94
2019-05-15T11:24:53.108Z,15.84
2019-05-15T11:25:51.623Z,15.74
2019-05-15T11:26:51.779Z,15.46
2019-05-15T11:27:51.934Z,15.41
2019-05-15T11:28:52.086Z,15.17
2019-05-15T11:29:52.243Z,15.20
2019-05-15T11:30:52.390Z,15.48
2019-05-15T11:31:52.544Z,15.38
2019-05-15T11:32:52.697Z,15.45
2019-05-15T11:33:52.852Z,15.43
2019-05-15T11:34:53.004Z,15.35
2019-05-15T11:36:00.492Z,15.46
2019-05-15T11:36:53.313Z,15.43
2019-05-15T11:37:56.785Z,15.60
2019-05-15T11:38:53.615Z,15.72
2019-05-15T11:39:53.779Z,15.92
2019-05-15T11:40:53.919Z,16.14
2019-05-15T11:41:54.073Z,15.99
2019-05-15T11:42:54.225Z,16.01
2019-05-15T11:43:54.368Z,15.63
2019-05-15T11:44:54.549Z,15.28
2019-05-15T11:45:54.679Z,14.88
2019-05-15T11:46:54.838Z,15.05
2019-05-15T11:47:54.990Z,15.09
2019-05-15T11:48:55.143Z,15.12
2019-05-15T11:49:55.294Z,15.01
2019-05-15T11:50:55.453Z,15.13
2019-05-15T11:52:00.407Z,15.11
2019-05-15T11:52:58.382Z,14.95
2019-05-15T11:53:56.452Z,15.27
2019-05-15T11:54:58.787Z,15.45
2019-05-15T11:55:56.226Z,15.66
2019-05-15T11:56:59.438Z,15.82
2019-05-15T11:57:56.528Z,15.84
2019-05-15T11:58:56.686Z,15.81
2019-05-15T11:59:59.598Z,15.72
2019-05-15T12:00:57.992Z,15.99
2019-05-15T12:01:58.083Z,16.09
2019-05-15T12:02:58.398Z,16.11
2019-05-15T12:03:58.551Z,16.01
2019-05-15T12:04:58.402Z,15.93
2019-05-15T12:05:59.636Z,16.14
2019-05-15T12:07:02.129Z,15.97
2019-05-15T12:07:58.065Z,15.96
2019-05-15T12:08:59.103Z,16.03
2019-05-15T12:09:58.376Z,16.07
2019-05-15T12:10:59.340Z,16.04
2019-05-15T12:11:58.690Z,15.89
2019-05-15T12:12:58.870Z,15.78
2019-05-15T12:13:58.997Z,15.92
2019-05-15T12:14:59.152Z,15.82
2019-05-15T12:15:59.310Z,15.96
2019-05-15T12:17:10.084Z,15.99
2019-05-15T12:17:59.610Z,16.22
2019-05-15T12:19:09.077Z,16.12
2019-05-15T12:20:05.783Z,16.18
2019-05-15T12:21:00.075Z,16.48
2019-05-15T12:22:00.230Z,16.80
2019-05-15T12:23:00.386Z,16.59
2019-05-15T12:24:00.538Z,16.81
2019-05-15T12:25:01.353Z,16.96
2019-05-15T12:26:00.846Z,17.08
2019-05-15T12:27:13.898Z,17.20
2019-05-15T12:28:01.153Z,16.93
2019-05-15T12:29:01.311Z,16.88
2019-05-15T12:30:01.491Z,16.96
2019-05-15T12:31:01.637Z,16.58
2019-05-15T12:32:21.845Z,16.67
2019-05-15T12:33:01.930Z,16.65
2019-05-15T12:34:02.126Z,16.44
2019-05-15T12:35:02.244Z,16.40
2019-05-15T12:36:02.448Z,16.20
2019-05-15T12:37:02.547Z,16.22
2019-05-15T12:38:02.700Z,16.33
2019-05-15T12:39:09.450Z,16.50
2019-05-15T13:00:07.516Z,16.26
2019-05-15T13:01:14.840Z,16.18
2019-05-15T13:02:08.176Z,16.44
2019-05-15T13:03:08.895Z,16.42
2019-05-15T13:04:08.238Z,16.80
2019-05-15T13:05:08.399Z,16.81
2019-05-15T13:06:08.067Z,16.70
2019-05-15T13:07:13.793Z,16.37
2019-05-15T13:08:08.380Z,16.68
2019-05-15T13:09:08.629Z,16.75
2019-05-15T13:10:08.750Z,16.68
2019-05-15T13:11:09.785Z,16.68
2019-05-15T13:12:08.550Z,16.70
2019-05-15T13:13:09.659Z,16.96
2019-05-15T13:14:08.281Z,17.11
2019-05-15T13:15:08.527Z,16.86
2019-05-15T13:16:08.560Z,16.63
2019-05-15T13:17:08.701Z,15.84
2019-05-15T13:18:13.914Z,15.84
2019-05-15T13:19:09.006Z,16.22
2019-05-15T13:20:09.165Z,16.63
2019-05-15T13:21:09.319Z,15.82
2019-05-15T13:22:17.790Z,15.94
2019-05-15T13:23:09.626Z,16.12
2019-05-15T13:24:09.776Z,16.26
2019-05-15T13:25:09.931Z,16.71
2019-05-15T13:26:23.022Z,16.77
2019-05-15T13:27:10.238Z,16.27
2019-05-15T13:28:10.390Z,15.97
2019-05-15T13:29:10.551Z,15.59